Time;durP1;ratioP1;P1;durP2;ratioP2;P2;SDS_P1;SDS_P2;PMS_P1;PMS_P2;Temp;Humidity;BMP_temperature;BMP_pressure;BME280_temperature;BME280_humidity;BME280_pressure;Samples;Min_cycle;Max_cycle;Signal;HPM_P1;HPM_P2
2023/02/19 00:02:52;;;;;;;4.28;3.42;;;;;;;10.57;77.66;100524.44;10321150;28;20045;-66
2023/02/19 00:07:53;;;;;;;4.47;4.03;;;;;;;10.59;78.15;100517.19;10316698;28;20050;-66
2023/02/19 00:12:54;;;;;;;4.28;3.03;;;;;;;10.55;78.11;100515.72;10314821;28;20436;-66
2023/02/19 00:17:56;;;;;;;5.30;4.35;;;;;;;10.51;78.32;100512.44;10312311;28;20133;-65
2023/02/19 00:22:57;;;;;;;3.72;3.28;;;;;;;10.50;78.57;100497.44;10314374;28;20054;-66
2023/02/19 00:27:58;;;;;;;3.28;3.00;;;;;;;10.42;78.81;100499.84;10312930;28;20088;-66
2023/02/19 00:33:00;;;;;;;3.90;3.58;;;;;;;10.57;78.24;100501.31;10313359;28;20057;-65
2023/02/19 00:38:02;;;;;;;4.47;3.95;;;;;;;10.55;78.74;100507.72;10314597;28;20136;-67
2023/02/19 00:43:03;;;;;;;4.80;3.72;;;;;;;10.52;78.63;100511.47;10313270;28;20050;-66
2023/02/19 00:48:05;;;;;;;3.58;3.28;;;;;;;10.55;78.67;100505.94;10312354;28;20077;-66
2023/02/19 00:53:06;;;;;;;3.92;3.50;;;;;;;10.52;78.86;100490.16;10311671;28;20047;-67
2023/02/19 00:58:07;;;;;;;4.47;3.97;;;;;;;10.38;79.09;100471.75;10313934;28;20424;-66
2023/02/19 01:03:09;;;;;;;5.18;4.68;;;;;;;10.44;79.48;100484.59;10310807;28;20048;-66
2023/02/19 01:08:10;;;;;;;4.30;3.90;;;;;;;10.52;79.38;100495.50;10312393;28;20482;-67
2023/02/19 01:13:12;;;;;;;4.40;4.00;;;;;;;10.47;79.30;100471.06;10308044;28;20045;-66
2023/02/19 01:18:13;;;;;;;4.70;4.20;;;;;;;10.59;79.35;100475.44;10313443;28;20157;-67
2023/02/19 01:23:15;;;;;;;3.97;3.58;;;;;;;10.55;79.38;100473.13;10313009;28;20053;-67
2023/02/19 01:28:16;;;;;;;4.65;4.25;;;;;;;10.43;79.56;100445.63;10314473;28;20054;-63
2023/02/19 01:33:17;;;;;;;4.55;4.10;;;;;;;10.48;79.84;100466.56;10322753;28;20077;-65
2023/02/19 01:38:19;;;;;;;3.95;3.60;;;;;;;10.46;80.19;100466.69;10323539;28;20050;-66
2023/02/19 01:43:20;;;;;;;4.43;4.00;;;;;;;10.38;80.39;100455.78;10311639;28;20164;-66
2023/02/19 01:48:36;;;;;;;5.40;4.03;;;;;;;10.50;80.55;100454.84;10315063;28;20050;-66
2023/02/19 01:53:43;;;;;;;3.85;3.55;;;;;;;10.48;80.29;100451.47;10315129;28;20046;-67
2023/02/19 01:58:45;;;;;;;7.28;4.60;;;;;;;10.45;80.39;100443.72;10322521;28;20639;-67
2023/02/19 02:03:48;;;;;;;4.70;3.90;;;;;;;10.43;80.52;100445.63;10311129;28;20133;-67
2023/02/19 02:14:13;;;;;;;4.32;3.92;;;;;;;10.35;80.97;100402.81;10307962;28;20145;-67
2023/02/19 02:19:45;;;;;;;4.60;4.20;;;;;;;10.41;81.72;100418.31;10307634;28;20050;-67
2023/02/19 02:25:15;;;;;;;5.55;5.05;;;;;;;10.48;81.46;100414.22;10313472;28;20750;-65
2023/02/19 02:30:19;;;;;;;6.88;6.07;;;;;;;10.42;81.64;100412.03;10306808;28;20058;-66
2023/02/19 02:35:26;;;;;;;5.25;4.65;;;;;;;10.40;83.24;100412.16;10307890;28;20057;-65
2023/02/19 02:40:27;;;;;;;4.43;4.03;;;;;;;10.26;84.27;100407.00;10311827;28;20089;-65
2023/02/19 02:45:34;;;;;;;3.33;2.80;;;;;;;10.30;85.10;100421.75;10308131;28;20133;-66
2023/02/19 02:51:05;;;;;;;3.08;2.78;;;;;;;10.24;85.50;100407.13;10304581;28;20041;-66
2023/02/19 02:56:09;;;;;;;3.25;2.95;;;;;;;10.20;85.40;100389.69;10283378;28;20052;-66
2023/02/19 03:06:40;;;;;;;3.33;2.90;;;;;;;10.05;85.43;100343.00;10307343;28;20169;-64
2023/02/19 03:22:36;;;;;;;2.60;2.40;;;;;;;10.25;85.16;100392.84;10302693;28;20143;-65
2023/02/19 03:27:41;;;;;;;2.47;2.28;;;;;;;10.29;84.82;100389.94;10305835;28;20678;-66
2023/02/19 03:32:54;;;;;;;2.85;2.63;;;;;;;10.23;84.53;100385.94;10306918;28;20053;-66
2023/02/19 03:38:05;;;;;;;2.50;2.30;;;;;;;10.30;84.44;100394.28;10311540;28;20579;-66
2023/02/19 03:43:32;;;;;;;3.10;2.65;;;;;;;10.25;84.65;100403.50;10306747;28;20552;-65
2023/02/19 03:48:40;;;;;;;2.30;2.10;;;;;;;10.00;85.41;100351.31;10310007;28;20748;-66
2023/02/19 03:54:02;;;;;;;2.45;2.00;;;;;;;10.24;86.05;100412.44;10308357;28;20054;-65
2023/02/19 03:59:11;;;;;;;2.33;2.13;;;;;;;10.26;86.10;100423.78;10312916;28;20560;-65
2023/02/19 04:04:23;;;;;;;2.60;2.00;;;;;;;10.23;86.66;100410.72;10305090;28;20509;-64
2023/02/19 04:09:32;;;;;;;1.55;1.45;;;;;;;10.33;86.18;100410.91;10310057;28;20041;-63
2023/02/19 04:14:52;;;;;;;2.90;2.35;;;;;;;10.27;86.24;100406.88;10309081;28;20041;-65
2023/02/19 04:19:57;;;;;;;2.42;2.13;;;;;;;10.23;88.05;100426.69;10313693;28;20530;-65
2023/02/19 04:24:59;;;;;;;2.60;2.40;;;;;;;10.17;88.17;100421.84;10316739;28;20734;-66
2023/02/19 04:30:01;;;;;;;2.08;1.70;;;;;;;10.20;88.02;100416.28;10316299;28;20045;-66
2023/02/19 04:35:02;;;;;;;2.60;2.30;;;;;;;10.22;86.44;100414.38;10312059;28;20136;-66
2023/02/19 04:40:04;;;;;;;2.22;1.70;;;;;;;10.13;86.19;100404.41;10313053;28;20567;-66
2023/02/19 04:45:06;;;;;;;1.80;1.67;;;;;;;10.16;85.93;100398.84;10309712;28;20492;-66
2023/02/19 04:50:08;;;;;;;1.65;1.38;;;;;;;10.20;85.54;100426.94;10310177;28;20062;-66
2023/02/19 04:55:09;;;;;;;1.02;0.90;;;;;;;10.24;84.86;100423.06;10310107;28;20050;-66
2023/02/19 05:00:11;;;;;;;1.20;1.10;;;;;;;10.22;84.13;100419.69;10311754;28;20485;-66
2023/02/19 05:05:12;;;;;;;1.15;0.68;;;;;;;10.41;83.52;100435.09;10314375;28;20444;-65
2023/02/19 05:10:14;;;;;;;0.82;0.50;;;;;;;10.40;83.03;100437.88;10313835;28;20060;-64
2023/02/19 05:15:15;;;;;;;0.98;0.68;;;;;;;10.33;82.64;100425.97;10311818;28;20096;-65
2023/02/19 05:20:17;;;;;;;0.80;0.77;;;;;;;10.33;82.76;100436.63;10311615;28;20054;-65
2023/02/19 05:25:18;;;;;;;0.50;0.32;;;;;;;10.39;82.62;100446.84;10311287;28;20231;-65
2023/02/19 05:30:19;;;;;;;0.73;0.40;;;;;;;10.36;82.47;100447.09;10309418;28;20050;-67
2023/02/19 05:35:21;;;;;;;0.90;0.43;;;;;;;10.44;82.21;100456.16;10308520;28;20579;-66
2023/02/19 05:40:22;;;;;;;0.60;0.50;;;;;;;10.40;82.27;100451.19;10310731;28;20179;-66
2023/02/19 05:45:25;;;;;;;0.52;0.43;;;;;;;10.34;82.38;100464.97;10310549;28;20042;-66
2023/02/19 05:50:26;;;;;;;0.90;0.22;;;;;;;10.38;82.33;100466.44;10307381;28;20048;-66
2023/02/19 05:55:32;;;;;;;0.25;0.20;;;;;;;10.38;82.00;100474.41;10303151;28;20082;-66
2023/02/19 06:00:33;;;;;;;0.75;0.20;;;;;;;10.35;81.27;100498.59;10298575;28;20072;-65
2023/02/19 06:05:36;;;;;;;0.40;0.20;;;;;;;10.33;80.95;100473.88;10320550;28;20137;-66
2023/02/19 06:10:40;;;;;;;0.60;0.20;;;;;;;10.39;80.60;100506.25;10294483;28;20085;-66
2023/02/19 06:15:41;;;;;;;0.80;0.40;;;;;;;10.47;80.14;100508.31;10306599;28;20056;-66
2023/02/19 06:20:42;;;;;;;1.10;0.40;;;;;;;10.36;80.32;100498.50;10305922;28;20046;-66
2023/02/19 06:25:44;;;;;;;2.28;0.52;;;;;;;10.31;80.43;100513.91;10304353;28;20054;-66
2023/02/19 06:30:45;;;;;;;0.40;0.20;;;;;;;10.32;80.52;100536.06;10306735;28;20069;-66
2023/02/19 06:35:47;;;;;;;0.68;0.57;;;;;;;10.43;80.03;100528.13;10324456;28;20054;-67
2023/02/19 06:40:48;;;;;;;0.52;0.25;;;;;;;10.55;79.65;100531.69;10312652;28;20138;-67
2023/02/19 06:45:50;;;;;;;1.05;0.50;;;;;;;10.54;79.23;100541.50;10311794;28;20135;-65
2023/02/19 06:50:52;;;;;;;0.98;0.38;;;;;;;10.44;79.22;100536.00;10306738;28;20053;-66
2023/02/19 06:56:19;;;;;;;0.82;0.43;;;;;;;10.50;78.92;100558.66;10314317;28;20051;-67
2023/02/19 07:01:22;;;;;;;0.82;0.40;;;;;;;10.68;81.41;100558.22;10308451;28;20038;-66
2023/02/19 07:06:25;;;;;;;5.55;3.60;;;;;;;10.75;79.33;100568.28;10304192;28;20808;-66
2023/02/19 07:11:29;;;;;;;2.42;0.45;;;;;;;10.74;78.95;100579.91;10308950;28;20639;-69
2023/02/19 07:16:31;;;;;;;0.70;0.30;;;;;;;10.64;79.37;100578.06;10307028;28;20568;-67
2023/02/19 07:21:36;;;;;;;1.40;0.52;;;;;;;10.71;78.80;100590.78;10309245;28;20058;-67
2023/02/19 07:26:37;;;;;;;1.63;0.75;;;;;;;10.59;79.22;100597.88;10304442;28;20058;-66
2023/02/19 07:31:39;;;;;;;1.58;0.60;;;;;;;10.65;79.61;100596.56;10308518;28;20051;-67
2023/02/19 07:36:40;;;;;;;1.85;0.60;;;;;;;10.46;80.60;100570.47;10306413;28;20060;-66
2023/02/19 07:41:42;;;;;;;1.35;0.60;;;;;;;10.57;79.94;100597.16;10302710;28;20049;-64
2023/02/19 07:46:43;;;;;;;1.02;0.60;;;;;;;10.49;80.51;100602.19;10305990;28;20191;-66
2023/02/19 07:51:45;;;;;;;2.08;0.60;;;;;;;10.43;80.34;100608.84;10303526;28;20139;-65
2023/02/19 07:56:46;;;;;;;2.55;0.80;;;;;;;10.61;80.28;100635.91;10313333;28;20054;-63
2023/02/19 08:07:08;;;;;;;1.60;0.68;;;;;;;10.69;81.06;100640.66;10315916;28;20038;-66
2023/02/19 08:17:30;;;;;;;0.82;0.50;;;;;;;10.76;80.38;100646.34;10315780;28;20050;-67
2023/02/19 08:22:31;;;;;;;1.98;1.23;;;;;;;10.79;79.46;100673.63;10310423;28;20061;-69
2023/02/19 08:27:33;;;;;;;1.50;0.75;;;;;;;10.57;83.02;100652.22;10311594;28;20076;-68
2023/02/19 08:32:34;;;;;;;1.95;0.77;;;;;;;10.59;83.58;100682.22;10309133;28;20073;-68
2023/02/19 08:37:35;;;;;;;1.40;0.90;;;;;;;10.46;84.84;100682.25;10310046;28;21139;-69
2023/02/19 08:42:37;;;;;;;1.45;0.75;;;;;;;10.52;85.28;100694.28;10311177;28;20484;-68
2023/02/19 08:47:38;;;;;;;2.15;0.80;;;;;;;10.73;84.92;100697.16;10311025;28;20057;-70
2023/02/19 08:52:40;;;;;;;2.25;0.95;;;;;;;11.01;83.66;100714.59;10311262;28;20042;-66
2023/02/19 08:57:41;;;;;;;1.30;0.90;;;;;;;11.03;82.72;100695.84;10323833;28;20061;-67
2023/02/19 09:02:43;;;;;;;2.83;1.40;;;;;;;11.20;82.91;100713.22;10319038;28;20054;-69
2023/02/19 09:07:44;;;;;;;3.22;1.00;;;;;;;11.40;81.29;100711.72;10318221;28;20441;-67
2023/02/19 09:12:47;;;;;;;3.28;1.25;;;;;;;11.48;79.47;100727.94;10317851;28;20054;-67
2023/02/19 09:17:52;;;;;;;1.52;0.90;;;;;;;11.48;77.73;100728.81;10320681;28;20050;-65
2023/02/19 09:22:57;;;;;;;2.63;1.10;;;;;;;11.53;77.64;100757.78;10315952;28;20429;-67
2023/02/19 09:27:59;;;;;;;3.22;1.30;;;;;;;11.60;77.58;100745.66;10312702;28;20058;-67
2023/02/19 09:33:00;;;;;;;2.72;1.10;;;;;;;11.48;78.65;100743.94;10311326;28;20060;-68
2023/02/19 09:38:02;;;;;;;2.80;1.30;;;;;;;11.48;76.67;100738.63;10316842;28;20124;-68
2023/02/19 09:43:19;;;;;;;2.10;1.17;;;;;;;11.62;76.87;100761.53;10312365;28;20056;-68
2023/02/19 09:48:21;;;;;;;3.83;1.50;;;;;;;11.41;78.47;100740.91;10304910;28;20133;-67
2023/02/19 09:53:28;;;;;;;1.75;1.23;;;;;;;11.34;78.50;100757.50;10301284;28;20061;-66
2023/02/19 09:58:33;;;;;;;2.70;1.70;;;;;;;11.31;79.40;100770.06;10309402;28;20104;-67
2023/02/19 10:03:40;;;;;;;2.38;1.30;;;;;;;11.36;79.08;100777.72;10312006;28;20531;-67
2023/02/19 10:08:44;;;;;;;4.65;2.72;;;;;;;11.22;78.78;100786.75;10308138;28;20152;-68
2023/02/19 10:14:08;;;;;;;3.42;1.75;;;;;;;11.31;79.67;100802.03;10303957;28;20045;-68
2023/02/19 10:19:11;;;;;;;3.88;1.63;;;;;;;11.19;80.92;100815.44;10309300;28;20364;-71
2023/02/19 10:24:22;;;;;;;2.17;1.52;;;;;;;11.17;82.73;100822.69;10302690;28;20058;-69
2023/02/19 10:29:23;;;;;;;4.90;1.67;;;;;;;11.12;83.24;100813.25;10307078;28;20081;-69
2023/02/19 10:34:25;;;;;;;2.70;1.40;;;;;;;11.04;83.54;100822.75;10306363;28;20130;-68
2023/02/19 10:39:45;;;;;;;4.78;1.88;;;;;;;11.06;84.15;100821.66;10305590;28;20160;-67
2023/02/19 10:44:53;;;;;;;3.85;1.98;;;;;;;11.14;85.00;100842.44;10296118;28;20077;-69
2023/02/19 10:49:58;;;;;;;5.30;2.80;;;;;;;11.04;84.99;100831.59;10298092;28;20045;-68
2023/02/19 10:55:25;;;;;;;3.20;2.22;;;;;;;11.14;84.18;100858.44;10292111;28;21180;-67
2023/02/19 11:00:29;;;;;;;5.50;2.47;;;;;;;11.18;83.95;100865.22;10298567;28;20054;-68
2023/02/19 11:05:31;;;;;;;4.93;2.75;;;;;;;11.13;84.57;100851.38;10301657;28;20050;-68
2023/02/19 11:10:41;;;;;;;5.75;2.13;;;;;;;11.18;83.54;100865.22;10301524;28;20058;-68
2023/02/19 11:15:43;;;;;;;3.47;2.13;;;;;;;11.38;82.01;100868.22;10301082;28;20046;-67
2023/02/19 11:20:59;;;;;;;3.63;2.40;;;;;;;11.70;81.26;100871.16;10311946;28;20553;-67
2023/02/19 11:26:05;;;;;;;3.50;2.40;;;;;;;11.76;79.78;100881.34;10303856;28;20050;-67
2023/02/19 11:31:18;;;;;;;4.38;2.35;;;;;;;12.76;75.00;100885.28;10309316;28;20054;-68
2023/02/19 11:36:26;;;;;;;3.08;2.08;;;;;;;14.16;69.07;100876.47;10301346;28;20073;-68
2023/02/19 11:41:48;;;;;;;4.07;2.00;;;;;;;17.95;54.67;100863.59;10299959;28;20419;-69
2023/02/19 11:47:03;;;;;;;4.78;1.95;;;;;;;16.43;57.23;100875.69;10291013;28;20485;-69
2023/02/19 11:52:20;;;;;;;1.80;1.55;;;;;;;19.03;50.38;100861.31;10298288;28;20560;-68
2023/02/19 11:57:34;;;;;;;4.47;1.90;;;;;;;17.01;54.97;100873.78;10301573;28;20042;-68
2023/02/19 12:03:01;;;;;;;3.17;1.52;;;;;;;17.93;53.61;100861.06;10298334;28;20054;-68
2023/02/19 12:08:21;;;;;;;2.70;1.45;;;;;;;19.46;49.03;100860.41;10307383;28;20042;-68
2023/02/19 12:13:36;;;;;;;2.70;1.65;;;;;;;19.74;48.80;100859.06;10303964;28;20599;-68
2023/02/19 12:19:07;;;;;;;2.83;1.60;;;;;;;20.92;45.34;100868.47;10302396;28;20046;-70
2023/02/19 12:24:53;;;;;;;3.67;1.75;;;;;;;17.85;50.93;100858.28;10307483;28;20192;-69
2023/02/19 12:30:01;;;;;;;2.80;1.75;;;;;;;16.09;55.77;100856.56;10299152;28;20050;-68
2023/02/19 12:35:32;;;;;;;3.92;1.85;;;;;;;15.79;56.52;100874.56;10301952;28;20057;-68
2023/02/19 12:40:48;;;;;;;3.97;1.95;;;;;;;15.32;57.90;100859.13;10302975;28;20050;-67
2023/02/19 12:45:56;;;;;;;5.05;2.42;;;;;;;16.04;56.30;100874.97;10313561;28;20057;-67
2023/02/19 12:51:06;;;;;;;3.63;1.90;;;;;;;14.71;60.65;100872.66;10314106;28;20408;-67
2023/02/19 12:56:15;;;;;;;3.83;2.10;;;;;;;13.94;63.86;100864.06;10313733;28;20352;-68
2023/02/19 13:01:22;;;;;;;2.42;1.80;;;;;;;14.88;62.73;100855.94;10313669;28;20108;-70
2023/02/19 13:06:38;;;;;;;5.25;2.00;;;;;;;16.25;56.06;100839.84;10318503;28;20133;-70
2023/02/19 13:11:48;;;;;;;3.30;1.92;;;;;;;16.38;53.68;100855.66;10310899;28;20102;-70
2023/02/19 13:16:54;;;;;;;4.15;2.22;;;;;;;17.34;50.46;100841.00;10310354;28;21599;-70
2023/02/19 13:27:44;;;;;;;5.05;2.20;;;;;;;15.07;56.72;100840.88;10314545;28;20260;-69
2023/02/19 13:33:12;;;;;;;4.03;2.00;;;;;;;23.49;40.03;100868.50;10311564;28;20060;-68
2023/02/19 13:38:14;;;;;;;3.10;1.30;;;;;;;24.77;33.88;100864.88;10314875;28;20054;-68
2023/02/19 13:43:28;;;;;;;1.45;1.15;;;;;;;21.70;39.41;100865.81;10318969;28;20401;-69
2023/02/19 13:48:32;;;;;;;2.15;1.00;;;;;;;18.23;45.25;100875.06;10308813;28;20046;-69
2023/02/19 13:53:40;;;;;;;1.92;1.20;;;;;;;18.12;48.33;100878.00;10310160;28;20064;-67
2023/02/19 13:58:52;;;;;;;2.85;1.30;;;;;;;17.23;48.90;100877.03;10303907;28;20049;-68
2023/02/19 14:04:07;;;;;;;3.70;1.48;;;;;;;16.24;51.51;100870.38;10313164;28;20056;-70
2023/02/19 14:09:40;;;;;;;6.90;1.70;;;;;;;15.54;54.20;100889.38;10311749;28;20472;-68
2023/02/19 14:14:45;;;;;;;3.72;1.65;;;;;;;15.36;54.83;100892.72;10320528;28;20106;-69
2023/02/19 14:19:51;;;;;;;2.85;1.80;;;;;;;15.08;56.41;100890.84;10336091;28;20121;-69
2023/02/19 14:24:53;;;;;;;2.75;1.30;;;;;;;14.55;57.83;100899.94;10309295;28;20133;-70
2023/02/19 14:29:55;;;;;;;3.28;1.33;;;;;;;13.95;59.21;100901.41;10304976;28;20244;-68
2023/02/19 14:34:57;;;;;;;1.55;1.20;;;;;;;13.55;60.24;100904.72;10299048;28;20211;-67
2023/02/19 14:39:58;;;;;;;2.80;1.00;;;;;;;13.30;61.69;100897.88;10305367;28;20053;-68
2023/02/19 14:45:05;;;;;;;1.80;0.82;;;;;;;13.28;62.27;100907.81;10303719;28;20492;-68
2023/02/19 14:50:13;;;;;;;5.10;2.42;;;;;;;13.14;62.29;100905.44;10305001;28;20389;-68
2023/02/19 14:55:29;;;;;;;2.50;1.05;;;;;;;14.88;57.39;100908.69;10298162;28;20062;-68
2023/02/19 15:00:40;;;;;;;1.65;0.93;;;;;;;17.38;50.17;100912.34;10301307;28;20058;-68
2023/02/19 15:05:44;;;;;;;0.95;0.50;;;;;;;18.41;46.19;100903.81;10306354;28;20050;-68
2023/02/19 15:10:45;;;;;;;2.25;0.75;;;;;;;16.42;49.24;100905.41;10303370;28;20595;-67
2023/02/19 15:15:47;;;;;;;0.50;0.50;;;;;;;15.02;52.73;100927.94;10308061;28;20068;-67
2023/02/19 15:20:50;;;;;;;2.28;0.88;;;;;;;14.35;55.72;100939.16;10306879;28;20192;-69
2023/02/19 15:25:52;;;;;;;2.17;1.00;;;;;;;13.95;56.62;100951.41;10308095;28;20050;-69
2023/02/19 15:30:56;;;;;;;1.90;0.90;;;;;;;13.41;58.80;100962.03;10301984;28;20053;-67
2023/02/19 15:36:03;;;;;;;1.92;1.30;;;;;;;13.18;59.79;100960.31;10303689;28;20101;-68
2023/02/19 15:41:04;;;;;;;4.82;1.90;;;;;;;13.00;60.17;100947.47;10305800;28;20050;-69
2023/02/19 15:46:14;;;;;;;1.42;0.70;;;;;;;12.67;61.38;100959.00;10311281;28;20074;-73
2023/02/19 15:51:24;;;;;;;0.95;0.45;;;;;;;12.48;62.65;100952.41;10333213;28;20050;-69
2023/02/19 15:56:32;;;;;;;1.55;0.90;;;;;;;12.45;62.44;100949.16;10334982;28;20041;-66
2023/02/19 16:01:37;;;;;;;2.53;0.70;;;;;;;12.18;61.94;100934.28;10315823;28;20056;-68
2023/02/19 16:06:57;;;;;;;1.27;0.63;;;;;;;12.17;62.25;100935.25;10318479;28;20072;-68
2023/02/19 16:12:00;;;;;;;2.25;0.70;;;;;;;12.24;62.69;100933.81;10321739;28;20100;-67
2023/02/19 16:17:08;;;;;;;2.58;0.93;;;;;;;12.02;63.65;100921.25;10328160;28;20104;-66
2023/02/19 16:22:11;;;;;;;1.20;0.50;;;;;;;12.09;63.70;100926.97;10329945;28;20076;-66
2023/02/19 16:27:29;;;;;;;0.73;0.60;;;;;;;11.68;64.25;100937.94;10332270;28;20061;-67
2023/02/19 16:32:31;;;;;;;2.10;1.17;;;;;;;11.66;65.38;100945.22;10317370;28;20436;-68
2023/02/19 16:37:37;;;;;;;3.83;1.23;;;;;;;11.57;64.90;100937.03;10316768;28;20057;-67
2023/02/19 16:42:48;;;;;;;2.60;1.00;;;;;;;11.73;65.65;100960.75;10311194;28;20057;-70
2023/02/19 16:47:50;;;;;;;1.60;0.65;;;;;;;11.72;64.40;100951.06;10309008;28;20517;-69
2023/02/19 16:52:57;;;;;;;1.23;0.50;;;;;;;11.52;64.74;100961.38;10319850;28;20937;-67
2023/02/19 16:58:00;;;;;;;1.70;0.85;;;;;;;11.53;65.75;100980.88;10313072;28;20046;-68
2023/02/19 17:03:07;;;;;;;1.85;0.75;;;;;;;11.50;65.37;100981.97;10305137;28;20091;-70
2023/02/19 17:08:24;;;;;;;1.13;0.73;;;;;;;11.56;65.43;100992.19;10313772;28;20504;-69
2023/02/19 17:13:25;;;;;;;2.08;1.20;;;;;;;11.59;65.64;100996.41;10311331;28;20057;-67
2023/02/19 17:18:27;;;;;;;9.27;7.05;;;;;;;11.83;65.85;101012.47;10311757;28;20068;-68
2023/02/19 17:23:28;;;;;;;4.10;1.85;;;;;;;11.92;65.03;101032.25;10305284;28;20533;-66
2023/02/19 17:28:30;;;;;;;2.13;1.27;;;;;;;11.85;65.14;101046.03;10316458;28;20596;-66
2023/02/19 17:33:31;;;;;;;3.13;1.00;;;;;;;11.70;65.42;101038.34;10318510;28;22011;-67
2023/02/19 17:38:33;;;;;;;2.40;1.17;;;;;;;11.54;66.20;101046.56;10316787;28;20231;-70
2023/02/19 17:43:34;;;;;;;2.15;1.33;;;;;;;11.52;66.52;101049.34;10317415;28;20053;-68
2023/02/19 17:48:35;;;;;;;1.33;1.00;;;;;;;11.55;65.97;101054.47;10318420;28;20056;-67
2023/02/19 17:53:37;;;;;;;1.70;1.30;;;;;;;11.45;66.90;101062.28;10319058;28;20054;-69
2023/02/19 17:58:38;;;;;;;2.97;2.03;;;;;;;11.37;67.29;101061.13;10315534;28;20679;-65
2023/02/19 18:03:39;;;;;;;3.85;1.50;;;;;;;11.26;68.08;101062.72;10315308;28;20058;-67
2023/02/19 18:08:52;;;;;;;2.35;1.08;;;;;;;11.43;67.23;101077.53;10315766;28;20049;-66
2023/02/19 18:13:53;;;;;;;1.75;1.02;;;;;;;11.41;67.24;101091.91;10309722;28;20053;-68
2023/02/19 18:18:57;;;;;;;2.95;1.70;;;;;;;11.36;67.04;101086.91;10318357;28;20088;-67
2023/02/19 18:23:58;;;;;;;2.50;1.77;;;;;;;11.20;67.70;101087.16;10325878;28;20046;-68
2023/02/19 18:29:00;;;;;;;2.92;1.67;;;;;;;11.20;67.30;101092.47;10306292;28;20063;-70
2023/02/19 18:34:01;;;;;;;2.38;1.70;;;;;;;11.13;67.39;101089.38;10309817;28;20461;-67
2023/02/19 18:39:03;;;;;;;2.20;1.52;;;;;;;11.20;68.12;101097.81;10313072;28;20085;-67
2023/02/19 18:44:04;;;;;;;2.95;1.77;;;;;;;11.09;67.99;101105.69;10311976;28;20050;-66
2023/02/19 18:49:06;;;;;;;2.60;1.63;;;;;;;10.96;69.18;101087.88;10307751;28;20050;-66
2023/02/19 18:54:07;;;;;;;2.97;2.08;;;;;;;11.02;69.19;101099.06;10309167;28;20212;-67
2023/02/19 18:59:09;;;;;;;2.35;1.63;;;;;;;10.91;68.34;101063.41;10313457;28;20045;-67
2023/02/19 19:04:10;;;;;;;1.77;1.58;;;;;;;11.11;68.83;101091.31;10307855;28;20057;-67
2023/02/19 19:09:12;;;;;;;2.90;1.90;;;;;;;11.07;68.50;101094.28;10307766;28;20184;-69
2023/02/19 19:14:13;;;;;;;3.30;2.30;;;;;;;10.96;69.29;101093.22;10311358;28;20053;-69
2023/02/19 19:19:15;;;;;;;2.47;1.98;;;;;;;10.87;69.41;101083.19;10311524;28;20520;-68
2023/02/19 19:24:20;;;;;;;2.30;2.03;;;;;;;10.98;69.82;101103.75;10303519;28;20050;-69
2023/02/19 19:29:21;;;;;;;3.30;2.05;;;;;;;11.01;69.90;101092.91;10304082;28;20057;-67
2023/02/19 19:34:23;;;;;;;3.03;2.22;;;;;;;10.98;69.99;101116.25;10304859;28;20137;-69
2023/02/19 19:39:25;;;;;;;2.88;2.45;;;;;;;11.01;70.04;101108.03;10315702;28;20045;-68
2023/02/19 19:44:26;;;;;;;3.58;2.17;;;;;;;11.05;69.99;101115.72;10305714;28;20157;-68
2023/02/19 19:49:27;;;;;;;3.00;2.70;;;;;;;10.99;69.86;101116.13;10308962;28;20166;-69
2023/02/19 19:54:29;;;;;;;5.18;2.85;;;;;;;11.10;69.62;101129.56;10310997;28;20054;-68
2023/02/19 19:59:30;;;;;;;2.90;2.63;;;;;;;10.93;69.39;101125.41;10313382;28;20050;-69
2023/02/19 20:04:32;;;;;;;3.13;2.75;;;;;;;10.75;69.41;101127.50;10308599;28;20050;-67
2023/02/19 20:09:34;;;;;;;3.03;2.70;;;;;;;10.75;69.72;101118.66;10308956;28;20046;-67
2023/02/19 20:14:35;;;;;;;5.20;3.85;;;;;;;10.94;69.63;101135.09;10308895;28;20054;-68
2023/02/19 20:19:36;;;;;;;4.10;3.05;;;;;;;11.11;69.13;101130.44;10316032;28;20795;-67
2023/02/19 20:24:38;;;;;;;3.80;2.78;;;;;;;10.70;70.58;101110.94;10308581;28;20578;-70
2023/02/19 20:29:39;;;;;;;3.67;3.13;;;;;;;10.99;69.91;101150.78;10311228;28;20053;-69
2023/02/19 20:34:40;;;;;;;4.03;3.20;;;;;;;10.82;70.29;101146.56;10313506;28;20426;-69
2023/02/19 20:39:42;;;;;;;3.60;2.65;;;;;;;10.68;70.84;101159.97;10309307;28;20045;-69
2023/02/19 20:44:43;;;;;;;4.55;3.00;;;;;;;10.65;71.36;101154.84;10332228;28;20049;-66
2023/02/19 20:49:45;;;;;;;3.50;2.83;;;;;;;10.82;71.40;101173.19;10310233;28;20133;-67
2023/02/19 20:54:47;;;;;;;4.47;3.40;;;;;;;10.74;71.00;101162.22;10311068;28;20517;-67
2023/02/19 20:59:48;;;;;;;4.68;3.13;;;;;;;10.83;70.98;101156.28;10313032;28;20100;-67
2023/02/19 21:04:50;;;;;;;8.73;5.97;;;;;;;10.91;70.44;101151.28;10303115;28;20335;-67
2023/02/19 21:09:51;;;;;;;3.70;3.05;;;;;;;10.80;70.04;101143.16;10310780;28;20567;-68
2023/02/19 21:14:53;;;;;;;3.70;3.38;;;;;;;10.68;71.07;101170.63;10311393;28;20812;-68
2023/02/19 21:19:54;;;;;;;3.40;3.05;;;;;;;10.70;71.43;101176.69;10311502;28;20064;-68
2023/02/19 21:24:56;;;;;;;3.22;2.92;;;;;;;10.72;71.38;101177.41;10309143;28;20058;-67
2023/02/19 21:29:57;;;;;;;3.80;3.03;;;;;;;10.70;71.46;101195.31;10312014;28;20060;-67
2023/02/19 21:34:58;;;;;;;4.90;3.65;;;;;;;10.50;71.83;101192.16;10314009;28;20049;-67
2023/02/19 21:40:00;;;;;;;4.10;3.28;;;;;;;10.53;71.82;101188.47;10313918;28;20046;-66
2023/02/19 21:45:02;;;;;;;3.85;3.55;;;;;;;10.67;71.63;101192.88;10306977;28;20065;-67
2023/02/19 21:50:04;;;;;;;4.30;3.47;;;;;;;10.58;72.15;101192.53;10314339;28;20141;-67
2023/02/19 21:55:06;;;;;;;5.40;3.85;;;;;;;10.58;71.35;101181.88;10319423;28;20062;-66
2023/02/19 22:00:08;;;;;;;4.47;3.55;;;;;;;10.27;72.15;101188.31;10313356;28;20056;-66
2023/02/19 22:05:09;;;;;;;5.22;3.70;;;;;;;10.47;72.04;101205.69;10308043;28;20363;-67
2023/02/19 22:10:12;;;;;;;4.78;3.53;;;;;;;10.13;72.14;101157.25;10305440;28;20052;-66
2023/02/19 22:15:14;;;;;;;6.97;3.20;;;;;;;10.59;71.90;101212.00;10302929;28;20136;-67
2023/02/19 22:20:16;;;;;;;3.95;3.53;;;;;;;10.55;72.19;101219.34;10307369;28;20057;-67
2023/02/19 22:25:17;;;;;;;4.22;3.33;;;;;;;10.50;71.71;101233.91;10312480;28;20060;-66
2023/02/19 22:30:19;;;;;;;4.05;3.67;;;;;;;10.33;70.41;101235.84;10307323;28;20050;-65
2023/02/19 22:35:20;;;;;;;5.40;3.60;;;;;;;9.99;71.15;101242.41;10306356;28;20050;-66
2023/02/19 22:40:22;;;;;;;5.78;3.88;;;;;;;9.97;70.93;101231.00;10309742;28;20656;-66
2023/02/19 22:45:24;;;;;;;4.53;3.65;;;;;;;10.01;70.76;101204.13;10305611;28;20101;-67
2023/02/19 22:50:25;;;;;;;4.47;3.67;;;;;;;10.29;70.27;101236.13;10316276;28;20054;-67
2023/02/19 22:55:27;;;;;;;4.28;3.88;;;;;;;10.27;68.09;101242.38;10306908;28;20050;-68
2023/02/19 23:00:28;;;;;;;4.18;3.33;;;;;;;9.89;68.33;101221.72;10310698;28;20073;-66
2023/02/19 23:05:31;;;;;;;4.43;3.92;;;;;;;10.04;67.95;101225.22;10331828;28;20076;-67
2023/02/19 23:10:32;;;;;;;4.80;3.45;;;;;;;10.20;66.93;101224.25;10308857;28;20128;-65
2023/02/19 23:15:34;;;;;;;3.95;3.60;;;;;;;10.33;66.70;101234.94;10307957;28;20050;-66
2023/02/19 23:20:35;;;;;;;4.43;3.85;;;;;;;10.13;67.06;101196.31;10308191;28;20408;-66
2023/02/19 23:25:36;;;;;;;3.97;3.60;;;;;;;10.17;66.93;101241.25;10309751;28;20129;-65
2023/02/19 23:30:38;;;;;;;3.60;3.30;;;;;;;10.19;66.51;101259.78;10306545;28;20501;-67
2023/02/19 23:35:39;;;;;;;5.30;3.40;;;;;;;10.37;66.73;101263.97;10307782;28;20084;-68
2023/02/19 23:40:41;;;;;;;4.75;3.70;;;;;;;10.30;66.15;101261.75;10307062;28;20054;-67
2023/02/19 23:45:43;;;;;;;4.93;3.90;;;;;;;10.14;66.19;101230.78;10315302;28;20050;-67
2023/02/19 23:50:44;;;;;;;5.00;3.58;;;;;;;10.09;66.19;101232.91;10306717;28;20544;-67
2023/02/19 23:55:46;;;;;;;4.38;3.85;;;;;;;10.10;66.76;101229.28;10307210;28;20141;-67
